X

Important NEWS



New Hub Active

Miami is our new hub! Old members can request transfer via hr@dlxairways.net

Thank you very much and have nice flight.


Deluxe Airways.

X

Tours



Hello again, we created one nice test tour for all pilots to attend. also this is ment to be testing of our tour system

Available Tours

If you find some issues please inform us.

Thank you very much and have nice flight.


Deluxe Airways.

 METAR AND TAF INFORMATION
ArrayMETAR FOR EDFM
16336197 5 EDFM 191850Z 15003KT 9999 -RA FEW018 SCT041 BKN086 14/13 Q1008 EDFM 2019-10-19T18:50:00Z 49.47 8.52 14.0 13.0 150 3 6.21 29.763779 -RA VFR METAR 100.0 EDFM 191820Z 17005KT 140V200 9999 -RA SCT024 SCT041 BKN085 15/13 Q1008 EDFM 2019-10-19T18:20:00Z 49.47 8.52 15.0 13.0 170 5 6.21 29.763779 -RA VFR METAR 100.0 EDFM 191750Z 19004KT 9999 -RA SCT027 BKN095 15/13 Q1008 EDFM 2019-10-19T17:50:00Z 49.47 8.52 15.0 13.0 190 4 6.21 29.763779 -RA VFR METAR 100.0

 AIRPORT MAP

 RUNWAY INFORMATION
Runway 09 Runway length 3497 ft Runway width 82 ft
Runway elevation 309 ft Runway displaced threshold 19 ft Runway heading 93
Runway 27 Runway length 3497 ft Runway width 82 ft
Runway elevation 306 ft Runway displaced threshold 174 ft Runway heading 273
Runway 09L Runway length 2297 ft Runway width 98 ft
Runway elevation 0 ft Runway displaced threshold 246 ft Runway heading 92
Runway 27R Runway length 2297 ft Runway width 98 ft
Runway elevation 0 ft Runway displaced threshold 82 ft Runway heading 272

 AIRPORT FREQUENCIES
Type APP Name COLEMAN AP Frequency 130.5 MHZ
Type ATIS Name ATIS Frequency 136.55 MHZ
Type CNTR Name LANGEN RAD Frequency 127.5 MHZ
Type INFO Name INFO Frequency 118.4 MHZ
Type TWR Name TWR Frequency 118.4 MHZ
Type TWR Name COLEMAN TW Frequency 122.1 MHZ

 AIRPORT NEAR NAVIGATION AIDS
Type DME Name Mannheim Frequency 113550 KHZ



Powered by Virtual Airlines Manager [v2.6.2]

Template code change by DeluxeAir